createdAt,value
2022-08-08T00:01:20.521Z,99.90
2022-08-08T00:04:04.955Z,99.90
2022-08-08T00:06:54.639Z,99.90
2022-08-08T00:09:34.524Z,99.90
2022-08-08T00:12:10.290Z,99.90
2022-08-08T00:15:00.287Z,99.90
2022-08-08T00:17:35.332Z,99.90
2022-08-08T00:20:24.838Z,99.90
2022-08-08T00:23:00.917Z,99.90
2022-08-08T00:25:45.099Z,99.90
2022-08-08T00:28:35.680Z,99.90
2022-08-08T00:32:15.319Z,99.90
2022-08-08T00:34:57.557Z,99.90
2022-08-08T00:37:57.082Z,99.90
2022-08-08T00:41:09.056Z,99.90
2022-08-08T00:44:00.728Z,99.90
2022-08-08T00:46:56.902Z,99.90
2022-08-08T00:49:37.491Z,99.90
2022-08-08T00:52:34.709Z,99.90
2022-08-08T00:55:59.195Z,99.90
2022-08-08T00:59:05.024Z,99.90
2022-08-08T01:01:39.384Z,99.90
2022-08-08T01:04:11.212Z,99.90
2022-08-08T01:06:47.497Z,99.90
2022-08-08T01:09:41.189Z,99.90
2022-08-08T01:12:29.785Z,99.90
2022-08-08T01:15:37.028Z,99.90
2022-08-08T01:18:53.734Z,99.90
2022-08-08T01:22:11.746Z,99.90
2022-08-08T01:25:02.128Z,99.90
2022-08-08T01:28:06.271Z,99.90
2022-08-08T01:30:53.412Z,99.90
2022-08-08T01:34:01.278Z,99.90
2022-08-08T01:37:13.955Z,99.90
2022-08-08T01:40:14.772Z,99.90
2022-08-08T01:43:06.977Z,99.90
2022-08-08T01:45:54.414Z,99.90
2022-08-08T01:48:38.167Z,99.90
2022-08-08T01:52:33.767Z,99.90
2022-08-08T01:55:25.939Z,99.90
2022-08-08T01:58:04.308Z,99.90
2022-08-08T02:00:57.387Z,99.90
2022-08-08T02:03:56.990Z,99.90
2022-08-08T02:07:01.761Z,99.90
2022-08-08T02:10:04.035Z,99.90
2022-08-08T02:13:10.068Z,99.90
2022-08-08T02:16:23.283Z,99.90
2022-08-08T02:19:26.933Z,99.90
2022-08-08T02:22:27.938Z,99.90
2022-08-08T02:25:47.046Z,99.90
2022-08-08T02:28:39.892Z,99.90
2022-08-08T02:31:58.757Z,99.90
2022-08-08T02:35:10.367Z,99.90
2022-08-08T02:38:12.706Z,99.90
2022-08-08T02:41:03.324Z,99.90
2022-08-08T02:44:44.992Z,99.90
2022-08-08T02:47:11.681Z,99.90
2022-08-08T02:49:55.641Z,99.90
2022-08-08T02:52:38.723Z,99.90
2022-08-08T02:55:31.822Z,99.90
2022-08-08T02:58:22.459Z,99.90
2022-08-08T03:01:15.188Z,99.90
2022-08-08T03:05:04.670Z,99.90
2022-08-08T03:07:41.687Z,99.90
2022-08-08T03:10:36.987Z,99.90
2022-08-08T03:16:00.166Z,99.90
2022-08-08T03:16:35.551Z,99.90
2022-08-08T03:19:27.141Z,99.90
2022-08-08T03:21:58.382Z,99.90
2022-08-08T03:24:26.276Z,99.90
2022-08-08T03:27:01.145Z,99.90
2022-08-08T03:29:55.031Z,99.90
2022-08-08T03:32:41.230Z,99.90
2022-08-08T03:35:10.105Z,99.90
2022-08-08T03:38:53.156Z,99.90
2022-08-08T03:40:29.929Z,99.90
2022-08-08T03:43:15.874Z,99.90
2022-08-08T03:46:05.853Z,99.90
2022-08-08T03:49:09.987Z,99.90
2022-08-08T03:51:19.513Z,99.90
2022-08-08T03:54:05.786Z,99.90
2022-08-08T03:56:35.685Z,99.90
2022-08-08T03:59:02.508Z,99.90
2022-08-08T04:02:33.459Z,99.90
2022-08-08T04:04:30.478Z,99.90
2022-08-08T04:07:01.218Z,99.90
2022-08-08T04:09:53.475Z,99.90
2022-08-08T04:12:16.125Z,99.90
2022-08-08T04:14:45.043Z,99.90
2022-08-08T04:17:22.278Z,99.90
2022-08-08T04:19:49.899Z,99.90
2022-08-08T04:22:18.763Z,99.90
2022-08-08T04:24:51.020Z,99.90
2022-08-08T04:27:42.988Z,99.90
2022-08-08T04:30:17.476Z,99.90
2022-08-08T04:32:48.008Z,99.90
2022-08-08T04:35:17.871Z,99.90
2022-08-08T04:37:49.146Z,99.90
2022-08-08T04:40:17.818Z,99.90
2022-08-08T04:42:56.140Z,99.90
2022-08-08T04:45:25.616Z,99.90
2022-08-08T04:47:53.325Z,99.90
2022-08-08T04:50:25.287Z,99.90
2022-08-08T04:53:00.620Z,99.90
2022-08-08T04:55:47.711Z,99.90
2022-08-08T04:58:18.265Z,99.90
2022-08-08T05:00:47.565Z,99.90
2022-08-08T05:03:18.942Z,99.90
2022-08-08T05:06:13.046Z,99.90
2022-08-08T05:08:46.055Z,99.90
2022-08-08T05:11:23.812Z,99.90
2022-08-08T05:13:57.670Z,99.90
2022-08-08T05:16:52.051Z,99.90
2022-08-08T05:20:09.655Z,99.90
2022-08-08T05:22:02.652Z,99.90
2022-08-08T05:24:30.927Z,99.90
2022-08-08T05:26:58.279Z,99.90
2022-08-08T05:29:29.018Z,99.90
2022-08-08T05:32:03.632Z,99.90
2022-08-08T05:34:41.203Z,99.90
2022-08-08T05:37:17.299Z,99.90
2022-08-08T05:39:54.639Z,99.90
2022-08-08T05:42:45.217Z,99.90
2022-08-08T05:45:25.322Z,99.90
2022-08-08T05:48:01.514Z,99.90
2022-08-08T05:50:36.078Z,99.90
2022-08-08T05:53:55.313Z,99.90
2022-08-08T05:56:11.418Z,99.90
2022-08-08T05:58:53.619Z,99.90
2022-08-08T06:01:55.589Z,99.90
2022-08-08T06:04:23.298Z,99.90
2022-08-08T06:07:00.067Z,99.90
2022-08-08T06:09:58.018Z,99.90
2022-08-08T06:12:30.083Z,99.90
2022-08-08T06:15:03.927Z,99.90
2022-08-08T06:18:18.128Z,99.90
2022-08-08T06:20:25.543Z,99.90
2022-08-08T06:22:53.299Z,99.90
2022-08-08T06:25:58.935Z,99.90
2022-08-08T06:28:14.383Z,99.90
2022-08-08T06:30:44.823Z,99.90
2022-08-08T06:33:13.332Z,99.90
2022-08-08T06:36:07.678Z,99.90
2022-08-08T06:38:39.505Z,99.90
2022-08-08T06:41:13.144Z,99.90
2022-08-08T06:43:47.626Z,99.90
2022-08-08T06:46:24.367Z,99.90
2022-08-08T06:48:51.159Z,99.90
2022-08-08T06:51:20.668Z,99.90
2022-08-08T06:53:50.425Z,99.90
2022-08-08T06:56:19.696Z,99.90
2022-08-08T06:58:50.069Z,99.90
2022-08-08T07:02:18.032Z,99.90
2022-08-08T07:04:41.520Z,99.90
2022-08-08T07:07:10.505Z,99.90
2022-08-08T07:09:59.210Z,99.90
2022-08-08T07:12:54.393Z,99.90
2022-08-08T07:16:09.991Z,99.90
2022-08-08T07:18:50.647Z,99.90
2022-08-08T07:21:27.338Z,99.90
2022-08-08T07:24:03.339Z,99.90
2022-08-08T07:26:35.969Z,99.90
2022-08-08T07:29:07.967Z,99.90
2022-08-08T07:31:36.028Z,99.90
2022-08-08T07:34:09.156Z,99.90
2022-08-08T07:36:42.036Z,99.90
2022-08-08T07:39:29.756Z,99.90
2022-08-08T07:42:13.891Z,99.90
2022-08-08T07:44:47.394Z,99.90
2022-08-08T07:47:14.266Z,99.90
2022-08-08T07:49:41.130Z,99.90
2022-08-08T07:52:19.662Z,99.90
2022-08-08T07:55:05.664Z,99.90
2022-08-08T07:57:57.021Z,99.90
2022-08-08T08:00:34.102Z,99.90
2022-08-08T08:03:20.517Z,99.90
2022-08-08T08:05:53.316Z,99.90
2022-08-08T08:08:26.336Z,99.90
2022-08-08T08:10:57.601Z,99.90
2022-08-08T08:14:06.330Z,99.90
2022-08-08T08:16:25.936Z,99.90
2022-08-08T08:18:56.770Z,99.90
2022-08-08T08:21:44.256Z,99.90
2022-08-08T08:24:15.702Z,99.90
2022-08-08T08:26:52.530Z,99.90
2022-08-08T08:29:21.917Z,99.90
2022-08-08T08:31:57.439Z,99.90
2022-08-08T08:34:32.529Z,99.90
2022-08-08T08:37:03.166Z,99.90
2022-08-08T08:39:59.427Z,99.90
2022-08-08T08:42:31.706Z,99.90
2022-08-08T08:45:10.288Z,99.90
2022-08-08T08:47:51.573Z,99.90
2022-08-08T08:50:33.581Z,99.90
2022-08-08T08:53:27.170Z,99.90
2022-08-08T08:56:01.212Z,99.90
2022-08-08T08:58:37.763Z,99.90
2022-08-08T09:01:09.715Z,99.90
2022-08-08T09:03:46.655Z,99.90
2022-08-08T09:06:33.669Z,99.90
2022-08-08T09:09:39.667Z,99.90
2022-08-08T09:12:16.201Z,99.90
2022-08-08T09:14:45.221Z,99.90
2022-08-08T09:17:31.639Z,99.90
2022-08-08T09:22:00.863Z,99.90
2022-08-08T09:22:50.075Z,99.90
2022-08-08T09:25:18.173Z,99.90
2022-08-08T09:27:56.894Z,99.90
2022-08-08T09:30:27.843Z,99.90
2022-08-08T09:33:12.525Z,99.90
2022-08-08T09:35:50.016Z,99.90
2022-08-08T09:38:53.491Z,99.90
2022-08-08T09:41:54.931Z,99.90
2022-08-08T09:44:56.723Z,99.90
2022-08-08T09:48:12.647Z,99.90
2022-08-08T09:50:32.439Z,99.90
2022-08-08T09:53:14.359Z,99.90
2022-08-08T09:56:04.166Z,99.90
2022-08-08T09:58:41.577Z,99.90
2022-08-08T10:01:15.477Z,99.90
2022-08-08T10:04:02.190Z,99.90
2022-08-08T10:06:35.492Z,99.90
2022-08-08T10:09:02.997Z,99.90
2022-08-08T10:12:28.420Z,99.90
2022-08-08T10:14:28.293Z,99.90
2022-08-08T10:17:57.218Z,99.90
2022-08-08T10:19:59.878Z,99.90
2022-08-08T10:22:28.950Z,99.90
2022-08-08T10:25:03.216Z,99.90
2022-08-08T10:27:43.183Z,99.90
2022-08-08T10:30:16.712Z,99.90
2022-08-08T10:33:00.149Z,99.90
2022-08-08T10:36:07.700Z,99.90
2022-08-08T10:38:18.004Z,99.70
2022-08-08T10:40:53.141Z,99.90
2022-08-08T10:43:22.834Z,99.60
2022-08-08T10:45:55.820Z,99.40
2022-08-08T10:48:57.794Z,99.90
2022-08-08T10:51:26.292Z,99.50
2022-08-08T10:53:58.261Z,98.20
2022-08-08T10:56:34.842Z,98.30
2022-08-08T10:59:09.544Z,97.80
2022-08-08T11:01:39.333Z,98.60
2022-08-08T11:04:10.599Z,98.60
2022-08-08T11:06:41.376Z,99.40
2022-08-08T11:09:20.169Z,98.20
2022-08-08T11:12:06.466Z,97.90
2022-08-08T11:14:52.782Z,99.00
2022-08-08T11:17:59.316Z,97.20
2022-08-08T11:20:13.050Z,97.40
2022-08-08T11:22:41.540Z,97.70
2022-08-08T11:25:14.231Z,96.70
2022-08-08T11:27:44.597Z,96.20
2022-08-08T11:30:19.810Z,96.40
2022-08-08T11:32:55.255Z,97.50
2022-08-08T11:35:38.333Z,97.60
2022-08-08T11:38:36.387Z,97.60
2022-08-08T11:40:57.388Z,96.40
2022-08-08T11:43:39.117Z,96.40
2022-08-08T11:46:13.962Z,96.70
2022-08-08T11:48:47.335Z,95.20
2022-08-08T11:51:30.562Z,94.10
2022-08-08T11:54:26.860Z,94.00
2022-08-08T11:56:56.747Z,94.70
2022-08-08T11:59:57.761Z,93.10
2022-08-08T12:02:33.889Z,92.50
2022-08-08T12:05:30.317Z,91.50
2022-08-08T12:08:00.508Z,91.30
2022-08-08T12:10:33.626Z,91.00
2022-08-08T12:13:07.709Z,92.20
2022-08-08T12:15:42.978Z,90.20
2022-08-08T12:18:20.868Z,91.10
2022-08-08T12:20:49.710Z,90.30
2022-08-08T12:23:42.890Z,88.70
2022-08-08T12:26:27.735Z,88.40
2022-08-08T12:29:19.735Z,86.30
2022-08-08T12:31:53.739Z,85.80
2022-08-08T12:34:36.191Z,84.40
2022-08-08T12:37:08.828Z,83.10
2022-08-08T12:40:01.842Z,87.20
2022-08-08T12:42:27.412Z,82.70
2022-08-08T12:45:20.041Z,84.10
2022-08-08T12:48:09.758Z,88.50
2022-08-08T12:50:49.674Z,84.40
2022-08-08T12:53:37.583Z,83.30
2022-08-08T12:56:19.431Z,83.20
2022-08-08T12:58:52.035Z,83.40
2022-08-08T13:01:24.585Z,79.00
2022-08-08T13:04:18.918Z,82.40
2022-08-08T13:07:07.933Z,77.60
2022-08-08T13:10:05.106Z,75.40
2022-08-08T13:12:36.442Z,79.00
2022-08-08T13:15:09.223Z,74.50
2022-08-08T13:17:53.906Z,73.50
2022-08-08T13:20:27.458Z,73.30
2022-08-08T13:23:27.281Z,74.70
2022-08-08T13:25:43.870Z,73.40
2022-08-08T13:28:17.493Z,72.90
2022-08-08T13:30:45.359Z,72.00
2022-08-08T13:33:18.317Z,70.50
2022-08-08T13:35:48.229Z,77.70
2022-08-08T13:38:18.191Z,69.90
2022-08-08T13:40:45.963Z,67.30
2022-08-08T13:43:16.652Z,68.60
2022-08-08T13:45:47.173Z,68.00
2022-08-08T13:48:17.281Z,66.20
2022-08-08T13:50:57.518Z,64.80
2022-08-08T13:53:31.355Z,71.70
2022-08-08T13:56:05.084Z,66.90
2022-08-08T13:58:33.213Z,65.30
2022-08-08T14:01:18.110Z,67.30
2022-08-08T14:03:55.427Z,63.30
2022-08-08T14:06:34.006Z,63.60
2022-08-08T14:09:25.212Z,62.20
2022-08-08T14:11:48.740Z,63.00
2022-08-08T14:14:20.601Z,65.70
2022-08-08T14:16:52.336Z,64.30
2022-08-08T14:19:29.376Z,61.80
2022-08-08T14:22:24.303Z,59.80
2022-08-08T14:24:55.458Z,59.50
2022-08-08T14:27:27.274Z,61.60
2022-08-08T14:29:57.566Z,62.00
2022-08-08T14:32:30.037Z,62.50
2022-08-08T14:35:04.605Z,63.70
2022-08-08T14:37:43.243Z,64.50
2022-08-08T14:40:29.649Z,64.90
2022-08-08T14:42:59.667Z,63.20
2022-08-08T14:45:46.885Z,61.10
2022-08-08T14:48:17.909Z,62.80
2022-08-08T14:51:04.907Z,62.50
2022-08-08T14:53:55.912Z,62.80
2022-08-08T14:56:25.124Z,64.30
2022-08-08T14:58:53.087Z,63.20
2022-08-08T15:01:37.354Z,64.00
2022-08-08T15:04:09.465Z,63.70
2022-08-08T15:06:37.268Z,63.10
2022-08-08T15:09:04.546Z,61.50
2022-08-08T15:11:42.876Z,62.00
2022-08-08T15:14:14.383Z,62.50
2022-08-08T15:16:44.190Z,62.70
2022-08-08T15:19:11.558Z,61.70
2022-08-08T15:21:42.588Z,63.40
2022-08-08T15:24:13.899Z,63.30
2022-08-08T15:26:41.824Z,66.20
2022-08-08T15:29:08.742Z,64.00
2022-08-08T15:32:02.877Z,62.20
2022-08-08T15:34:29.584Z,62.00
2022-08-08T15:36:59.611Z,62.60
2022-08-08T15:39:31.651Z,63.10
2022-08-08T15:42:06.975Z,64.40
2022-08-08T15:44:38.550Z,64.50
2022-08-08T15:47:07.276Z,64.20
2022-08-08T15:49:44.313Z,65.40
2022-08-08T15:52:15.972Z,65.00
2022-08-08T15:54:47.922Z,67.30
2022-08-08T15:57:19.046Z,69.10
2022-08-08T16:00:07.888Z,66.50
2022-08-08T16:02:32.935Z,66.10
2022-08-08T16:05:01.604Z,67.00
2022-08-08T16:07:52.005Z,67.10
2022-08-08T16:13:04.197Z,67.70
2022-08-08T16:13:29.977Z,68.50
2022-08-08T16:15:58.796Z,68.20
2022-08-08T16:18:27.685Z,68.90
2022-08-08T16:20:59.994Z,69.50
2022-08-08T16:23:31.545Z,70.50
2022-08-08T16:26:04.348Z,70.40
2022-08-08T16:28:35.406Z,71.00
2022-08-08T16:31:06.451Z,71.70
2022-08-08T16:33:38.033Z,71.50
2022-08-08T16:36:08.971Z,72.00
2022-08-08T16:38:44.403Z,72.30
2022-08-08T16:41:20.689Z,75.60
2022-08-08T16:43:51.872Z,72.30
2022-08-08T16:46:44.083Z,71.90
2022-08-08T16:49:09.323Z,71.80
2022-08-08T16:55:02.287Z,72.70
2022-08-08T16:55:02.822Z,72.50
2022-08-08T16:58:12.779Z,73.10
2022-08-08T17:00:08.504Z,73.60
2022-08-08T17:02:39.587Z,73.40
2022-08-08T17:05:08.595Z,74.00
2022-08-08T17:07:37.415Z,73.90
2022-08-08T17:10:08.208Z,74.40
2022-08-08T17:12:36.902Z,75.40
2022-08-08T17:15:17.814Z,76.30
2022-08-08T17:18:02.773Z,76.00
2022-08-08T17:20:39.771Z,77.00
2022-08-08T17:23:25.707Z,77.70
2022-08-08T17:25:54.838Z,78.20
2022-08-08T17:28:30.712Z,79.60
2022-08-08T17:31:43.210Z,80.00
2022-08-08T17:34:49.203Z,79.00
2022-08-08T17:36:37.350Z,80.20
2022-08-08T17:39:05.369Z,80.90
2022-08-08T17:41:58.091Z,81.90
2022-08-08T17:44:26.926Z,82.70
2022-08-08T17:46:56.873Z,83.20
2022-08-08T17:49:28.631Z,83.00
2022-08-08T17:52:05.633Z,83.00
2022-08-08T17:54:33.921Z,83.40
2022-08-08T17:57:02.712Z,83.70
2022-08-08T17:59:34.732Z,84.20
2022-08-08T18:02:18.898Z,84.80
2022-08-08T18:04:50.722Z,84.80
2022-08-08T18:08:01.757Z,85.70
2022-08-08T18:10:05.520Z,86.10
2022-08-08T18:12:32.297Z,86.10
2022-08-08T18:14:59.025Z,86.50
2022-08-08T18:17:28.710Z,86.80
2022-08-08T18:20:36.895Z,87.20
2022-08-08T18:23:00.910Z,88.00
2022-08-08T18:25:28.487Z,88.20
2022-08-08T18:28:04.545Z,88.20
2022-08-08T18:30:31.893Z,89.40
2022-08-08T18:32:58.770Z,90.40
2022-08-08T18:35:34.073Z,90.40
2022-08-08T18:38:17.374Z,90.40
2022-08-08T18:40:46.599Z,89.40
2022-08-08T18:43:16.224Z,89.20
2022-08-08T18:46:00.355Z,89.50
2022-08-08T18:48:31.095Z,87.70
2022-08-08T18:50:58.846Z,87.50
2022-08-08T18:54:00.892Z,88.10
2022-08-08T18:56:21.057Z,89.20
2022-08-08T18:58:49.355Z,89.90
2022-08-08T19:02:26.658Z,90.20
2022-08-08T19:04:10.715Z,90.90
2022-08-08T19:06:38.074Z,91.10
2022-08-08T19:09:13.595Z,90.90
2022-08-08T19:11:46.180Z,91.10
2022-08-08T19:14:20.418Z,91.40
2022-08-08T19:16:48.039Z,91.00
2022-08-08T19:19:15.922Z,91.20
2022-08-08T19:21:48.958Z,91.70
2022-08-08T19:24:48.819Z,91.80
2022-08-08T19:27:05.751Z,92.20
2022-08-08T19:29:35.626Z,92.10
2022-08-08T19:32:12.527Z,91.80
2022-08-08T19:34:41.364Z,92.10
2022-08-08T19:37:16.501Z,92.60
2022-08-08T19:39:45.551Z,93.30
2022-08-08T19:42:13.701Z,93.40
2022-08-08T19:44:43.092Z,94.00
2022-08-08T19:47:13.494Z,94.60
2022-08-08T19:49:43.172Z,94.70
2022-08-08T19:52:13.493Z,95.10
2022-08-08T19:54:40.415Z,95.00
2022-08-08T19:57:10.122Z,95.20
2022-08-08T19:59:41.292Z,95.30
2022-08-08T20:02:10.731Z,95.80
2022-08-08T20:04:38.537Z,96.20
2022-08-08T20:08:29.192Z,96.80
2022-08-08T20:09:57.127Z,97.20
2022-08-08T20:12:32.361Z,97.50
2022-08-08T20:15:14.530Z,97.40
2022-08-08T20:17:45.742Z,97.10
2022-08-08T20:20:18.863Z,97.50
2022-08-08T20:22:46.629Z,97.40
2022-08-08T20:25:20.334Z,97.70
2022-08-08T20:27:49.439Z,97.60
2022-08-08T20:30:53.671Z,98.00
2022-08-08T20:33:18.748Z,98.30
2022-08-08T20:35:58.425Z,99.40
2022-08-08T20:38:29.208Z,99.20
2022-08-08T20:40:59.318Z,99.00
2022-08-08T20:43:43.630Z,99.20
2022-08-08T20:46:12.853Z,98.80
2022-08-08T20:48:39.558Z,98.40
2022-08-08T20:51:07.831Z,98.00
2022-08-08T20:53:58.934Z,97.90
2022-08-08T20:56:35.893Z,98.30
2022-08-08T20:59:06.247Z,98.80
2022-08-08T21:02:05.375Z,98.80
2022-08-08T21:04:23.528Z,98.40
2022-08-08T21:06:54.695Z,98.80
2022-08-08T21:09:21.834Z,99.20
2022-08-08T21:11:51.689Z,99.10
2022-08-08T21:14:33.397Z,98.90
2022-08-08T21:17:00.744Z,98.90
2022-08-08T21:19:44.133Z,98.90
2022-08-08T21:22:11.813Z,99.30
2022-08-08T21:24:39.616Z,99.50
2022-08-08T21:27:15.509Z,99.20
2022-08-08T21:30:04.455Z,99.50
2022-08-08T21:32:35.669Z,99.80
2022-08-08T21:36:14.405Z,99.90
2022-08-08T21:37:54.123Z,99.90
2022-08-08T21:40:31.296Z,99.90
2022-08-08T21:42:58.760Z,99.90
2022-08-08T21:48:01.377Z,99.90
2022-08-08T21:48:19.471Z,99.90
2022-08-08T21:50:48.262Z,99.90
2022-08-08T21:54:32.000Z,99.90
2022-08-08T21:56:19.472Z,99.90
2022-08-08T21:58:55.190Z,99.90
2022-08-08T22:01:39.441Z,99.90
2022-08-08T22:04:10.559Z,99.90
2022-08-08T22:06:40.596Z,99.90
2022-08-08T22:09:09.799Z,99.90
2022-08-08T22:12:02.255Z,99.90
2022-08-08T22:14:27.103Z,99.90
2022-08-08T22:16:56.245Z,99.90
2022-08-08T22:19:23.697Z,99.90
2022-08-08T22:21:51.495Z,99.90
2022-08-08T22:24:28.229Z,99.90
2022-08-08T22:27:01.454Z,99.90
2022-08-08T22:30:01.699Z,99.90
2022-08-08T22:32:18.899Z,99.90
2022-08-08T22:34:51.109Z,99.90
2022-08-08T22:37:48.780Z,99.90
2022-08-08T22:40:11.758Z,99.90
2022-08-08T22:42:40.166Z,99.90
2022-08-08T22:45:12.544Z,99.90
2022-08-08T22:47:41.093Z,99.90
2022-08-08T22:50:09.950Z,99.90
2022-08-08T22:54:15.638Z,99.90
2022-08-08T22:55:58.453Z,99.90
2022-08-08T22:58:28.705Z,99.90
2022-08-08T23:00:58.171Z,99.90
2022-08-08T23:03:34.354Z,99.90
2022-08-08T23:06:16.969Z,99.90
2022-08-08T23:08:44.368Z,99.90
2022-08-08T23:11:58.024Z,99.90
2022-08-08T23:14:11.563Z,99.90
2022-08-08T23:16:44.203Z,99.90
2022-08-08T23:19:15.502Z,99.90
2022-08-08T23:21:43.035Z,99.90
2022-08-08T23:24:12.686Z,99.90
2022-08-08T23:26:53.544Z,99.90
2022-08-08T23:29:24.748Z,99.90
2022-08-08T23:31:51.881Z,99.90
2022-08-08T23:34:19.530Z,99.90
2022-08-08T23:36:47.989Z,99.90
2022-08-08T23:39:15.620Z,99.90
2022-08-08T23:41:47.236Z,99.90
2022-08-08T23:44:19.980Z,99.90
2022-08-08T23:49:01.451Z,99.90
2022-08-08T23:49:39.573Z,99.90
2022-08-08T23:52:11.029Z,99.90
2022-08-08T23:55:07.726Z,99.90
2022-08-08T23:57:51.815Z,99.90
